sensor_id;sensor_type;location;lat;lon;timestamp;P1;durP1;ratioP1;P2;durP2;ratioP2
24557;SDS011;12726;49.148;8.582;2024-01-07T00:02:25;19.25;;;9.70;;
24557;SDS011;12726;49.148;8.582;2024-01-07T00:05:10;17.20;;;9.45;;
24557;SDS011;12726;49.148;8.582;2024-01-07T00:07:55;19.58;;;10.73;;
24557;SDS011;12726;49.148;8.582;2024-01-07T00:10:41;17.70;;;9.60;;
24557;SDS011;12726;49.148;8.582;2024-01-07T00:13:26;19.08;;;9.30;;
24557;SDS011;12726;49.148;8.582;2024-01-07T00:16:11;19.75;;;10.20;;
24557;SDS011;12726;49.148;8.582;2024-01-07T00:18:58;21.27;;;10.85;;
24557;SDS011;12726;49.148;8.582;2024-01-07T00:21:43;19.15;;;9.60;;
24557;SDS011;12726;49.148;8.582;2024-01-07T00:24:29;20.70;;;10.45;;
24557;SDS011;12726;49.148;8.582;2024-01-07T00:27:14;24.60;;;10.25;;
24557;SDS011;12726;49.148;8.582;2024-01-07T00:29:59;21.95;;;9.68;;
24557;SDS011;12726;49.148;8.582;2024-01-07T00:32:45;20.88;;;9.15;;
24557;SDS011;12726;49.148;8.582;2024-01-07T00:35:31;18.40;;;9.73;;
24557;SDS011;12726;49.148;8.582;2024-01-07T00:38:17;20.27;;;10.18;;
24557;SDS011;12726;49.148;8.582;2024-01-07T00:41:02;19.95;;;10.15;;
24557;SDS011;12726;49.148;8.582;2024-01-07T00:43:48;18.80;;;9.57;;
24557;SDS011;12726;49.148;8.582;2024-01-07T00:46:33;21.58;;;9.82;;
24557;SDS011;12726;49.148;8.582;2024-01-07T00:49:18;18.27;;;9.32;;
24557;SDS011;12726;49.148;8.582;2024-01-07T00:52:05;21.33;;;10.43;;
24557;SDS011;12726;49.148;8.582;2024-01-07T00:54:51;21.90;;;9.25;;
24557;SDS011;12726;49.148;8.582;2024-01-07T00:57:36;20.25;;;9.93;;
24557;SDS011;12726;49.148;8.582;2024-01-07T01:00:21;21.70;;;10.38;;
24557;SDS011;12726;49.148;8.582;2024-01-07T01:03:06;21.42;;;9.70;;
24557;SDS011;12726;49.148;8.582;2024-01-07T01:05:52;23.55;;;11.18;;
24557;SDS011;12726;49.148;8.582;2024-01-07T01:08:39;19.55;;;10.43;;
24557;SDS011;12726;49.148;8.582;2024-01-07T01:11:24;19.20;;;9.88;;
24557;SDS011;12726;49.148;8.582;2024-01-07T01:14:10;20.45;;;9.75;;
24557;SDS011;12726;49.148;8.582;2024-01-07T01:16:55;20.88;;;10.20;;
24557;SDS011;12726;49.148;8.582;2024-01-07T01:19:41;19.80;;;9.85;;
24557;SDS011;12726;49.148;8.582;2024-01-07T01:22:26;22.00;;;10.57;;
24557;SDS011;12726;49.148;8.582;2024-01-07T01:25:13;22.10;;;9.68;;
24557;SDS011;12726;49.148;8.582;2024-01-07T01:27:58;19.02;;;9.38;;
24557;SDS011;12726;49.148;8.582;2024-01-07T01:30:43;18.02;;;9.20;;
24557;SDS011;12726;49.148;8.582;2024-01-07T01:33:28;19.45;;;10.35;;
24557;SDS011;12726;49.148;8.582;2024-01-07T01:36:14;23.08;;;10.60;;
24557;SDS011;12726;49.148;8.582;2024-01-07T01:38:59;20.02;;;9.02;;
24557;SDS011;12726;49.148;8.582;2024-01-07T01:41:46;22.05;;;10.50;;
24557;SDS011;12726;49.148;8.582;2024-01-07T01:44:31;17.60;;;9.75;;
24557;SDS011;12726;49.148;8.582;2024-01-07T01:47:17;18.67;;;9.50;;
24557;SDS011;12726;49.148;8.582;2024-01-07T01:50:03;19.63;;;9.55;;
24557;SDS011;12726;49.148;8.582;2024-01-07T01:52:49;17.45;;;8.95;;
24557;SDS011;12726;49.148;8.582;2024-01-07T01:55:35;19.73;;;10.02;;
24557;SDS011;12726;49.148;8.582;2024-01-07T01:58:22;18.00;;;9.90;;
24557;SDS011;12726;49.148;8.582;2024-01-07T02:01:08;20.25;;;9.70;;
24557;SDS011;12726;49.148;8.582;2024-01-07T02:03:53;19.38;;;8.98;;
24557;SDS011;12726;49.148;8.582;2024-01-07T02:06:39;18.50;;;9.25;;
24557;SDS011;12726;49.148;8.582;2024-01-07T02:09:24;18.10;;;9.18;;
24557;SDS011;12726;49.148;8.582;2024-01-07T02:12:09;19.05;;;10.05;;
24557;SDS011;12726;49.148;8.582;2024-01-07T02:14:56;16.73;;;8.32;;
24557;SDS011;12726;49.148;8.582;2024-01-07T02:17:42;16.77;;;9.05;;
24557;SDS011;12726;49.148;8.582;2024-01-07T02:20:27;18.60;;;7.95;;
24557;SDS011;12726;49.148;8.582;2024-01-07T02:23:13;16.92;;;8.35;;
24557;SDS011;12726;49.148;8.582;2024-01-07T02:25:59;16.52;;;7.90;;
24557;SDS011;12726;49.148;8.582;2024-01-07T02:28:45;15.05;;;6.93;;
24557;SDS011;12726;49.148;8.582;2024-01-07T02:31:30;15.07;;;7.57;;
24557;SDS011;12726;49.148;8.582;2024-01-07T02:34:15;14.07;;;7.13;;
24557;SDS011;12726;49.148;8.582;2024-01-07T02:37:01;17.42;;;7.57;;
24557;SDS011;12726;49.148;8.582;2024-01-07T02:39:46;15.50;;;7.30;;
24557;SDS011;12726;49.148;8.582;2024-01-07T02:42:32;14.63;;;6.65;;
24557;SDS011;12726;49.148;8.582;2024-01-07T02:45:18;14.13;;;6.88;;
24557;SDS011;12726;49.148;8.582;2024-01-07T02:48:03;16.85;;;8.10;;
24557;SDS011;12726;49.148;8.582;2024-01-07T02:50:49;13.48;;;7.05;;
24557;SDS011;12726;49.148;8.582;2024-01-07T02:53:35;12.52;;;6.20;;
24557;SDS011;12726;49.148;8.582;2024-01-07T02:56:20;14.20;;;7.35;;
24557;SDS011;12726;49.148;8.582;2024-01-07T02:59:07;18.15;;;7.25;;
24557;SDS011;12726;49.148;8.582;2024-01-07T03:01:55;14.52;;;6.53;;
24557;SDS011;12726;49.148;8.582;2024-01-07T03:04:40;16.10;;;6.97;;
24557;SDS011;12726;49.148;8.582;2024-01-07T03:07:25;13.52;;;6.47;;
24557;SDS011;12726;49.148;8.582;2024-01-07T03:10:11;12.93;;;6.32;;
24557;SDS011;12726;49.148;8.582;2024-01-07T03:12:56;16.23;;;7.53;;
24557;SDS011;12726;49.148;8.582;2024-01-07T03:15:43;15.77;;;6.97;;
24557;SDS011;12726;49.148;8.582;2024-01-07T03:18:28;14.55;;;6.60;;
24557;SDS011;12726;49.148;8.582;2024-01-07T03:21:17;12.07;;;6.15;;
24557;SDS011;12726;49.148;8.582;2024-01-07T03:24:03;14.65;;;6.20;;
24557;SDS011;12726;49.148;8.582;2024-01-07T03:26:49;12.05;;;6.15;;
24557;SDS011;12726;49.148;8.582;2024-01-07T03:29:35;12.77;;;6.03;;
24557;SDS011;12726;49.148;8.582;2024-01-07T03:32:22;13.15;;;6.32;;
24557;SDS011;12726;49.148;8.582;2024-01-07T03:35:08;15.52;;;7.15;;
24557;SDS011;12726;49.148;8.582;2024-01-07T03:37:53;13.25;;;6.47;;
24557;SDS011;12726;49.148;8.582;2024-01-07T03:40:38;11.40;;;5.55;;
24557;SDS011;12726;49.148;8.582;2024-01-07T03:43:24;12.85;;;6.95;;
24557;SDS011;12726;49.148;8.582;2024-01-07T03:46:09;10.90;;;5.93;;
24557;SDS011;12726;49.148;8.582;2024-01-07T03:48:56;12.82;;;6.00;;
24557;SDS011;12726;49.148;8.582;2024-01-07T03:51:41;10.65;;;5.97;;
24557;SDS011;12726;49.148;8.582;2024-01-07T03:54:27;11.95;;;5.80;;
24557;SDS011;12726;49.148;8.582;2024-01-07T03:57:12;13.23;;;6.05;;
24557;SDS011;12726;49.148;8.582;2024-01-07T03:59:58;10.13;;;5.38;;
24557;SDS011;12726;49.148;8.582;2024-01-07T04:02:43;8.85;;;5.00;;
24557;SDS011;12726;49.148;8.582;2024-01-07T04:05:30;11.73;;;5.47;;
24557;SDS011;12726;49.148;8.582;2024-01-07T04:08:16;11.35;;;5.82;;
24557;SDS011;12726;49.148;8.582;2024-01-07T04:11:02;10.07;;;5.60;;
24557;SDS011;12726;49.148;8.582;2024-01-07T04:13:47;13.40;;;6.03;;
24557;SDS011;12726;49.148;8.582;2024-01-07T04:16:32;13.63;;;6.55;;
24557;SDS011;12726;49.148;8.582;2024-01-07T04:19:18;12.93;;;6.93;;
24557;SDS011;12726;49.148;8.582;2024-01-07T04:22:04;10.57;;;5.72;;
24557;SDS011;12726;49.148;8.582;2024-01-07T04:24:50;12.50;;;6.25;;
24557;SDS011;12726;49.148;8.582;2024-01-07T04:27:35;11.95;;;6.60;;
24557;SDS011;12726;49.148;8.582;2024-01-07T04:30:21;12.88;;;5.90;;
24557;SDS011;12726;49.148;8.582;2024-01-07T04:33:06;10.07;;;5.47;;
24557;SDS011;12726;49.148;8.582;2024-01-07T04:35:51;10.93;;;6.18;;
24557;SDS011;12726;49.148;8.582;2024-01-07T04:38:43;12.35;;;6.95;;
24557;SDS011;12726;49.148;8.582;2024-01-07T04:41:28;10.48;;;5.97;;
24557;SDS011;12726;49.148;8.582;2024-01-07T04:44:13;11.57;;;6.32;;
24557;SDS011;12726;49.148;8.582;2024-01-07T04:46:59;12.18;;;6.72;;
24557;SDS011;12726;49.148;8.582;2024-01-07T04:49:44;11.32;;;6.53;;
24557;SDS011;12726;49.148;8.582;2024-01-07T04:52:29;11.52;;;6.60;;
24557;SDS011;12726;49.148;8.582;2024-01-07T04:55:17;12.68;;;7.00;;
24557;SDS011;12726;49.148;8.582;2024-01-07T04:58:02;11.77;;;6.60;;
24557;SDS011;12726;49.148;8.582;2024-01-07T05:00:48;11.65;;;6.63;;
24557;SDS011;12726;49.148;8.582;2024-01-07T05:03:33;13.10;;;6.40;;
24557;SDS011;12726;49.148;8.582;2024-01-07T05:06:19;12.70;;;6.77;;
24557;SDS011;12726;49.148;8.582;2024-01-07T05:09:04;13.88;;;6.85;;
24557;SDS011;12726;49.148;8.582;2024-01-07T05:11:51;13.48;;;6.72;;
24557;SDS011;12726;49.148;8.582;2024-01-07T05:14:36;9.70;;;5.80;;
24557;SDS011;12726;49.148;8.582;2024-01-07T05:17:21;13.85;;;6.78;;
24557;SDS011;12726;49.148;8.582;2024-01-07T05:20:07;9.63;;;6.13;;
24557;SDS011;12726;49.148;8.582;2024-01-07T05:22:53;12.35;;;6.97;;
24557;SDS011;12726;49.148;8.582;2024-01-07T05:25:39;13.73;;;7.32;;
24557;SDS011;12726;49.148;8.582;2024-01-07T05:28:26;12.18;;;7.05;;
24557;SDS011;12726;49.148;8.582;2024-01-07T05:31:14;15.65;;;6.90;;
24557;SDS011;12726;49.148;8.582;2024-01-07T05:34:00;12.07;;;6.85;;
24557;SDS011;12726;49.148;8.582;2024-01-07T05:36:46;13.38;;;7.40;;
24557;SDS011;12726;49.148;8.582;2024-01-07T05:39:31;13.02;;;6.38;;
24557;SDS011;12726;49.148;8.582;2024-01-07T05:42:16;16.08;;;7.85;;
24557;SDS011;12726;49.148;8.582;2024-01-07T05:45:04;11.80;;;7.20;;
24557;SDS011;12726;49.148;8.582;2024-01-07T05:47:50;12.68;;;7.15;;
24557;SDS011;12726;49.148;8.582;2024-01-07T05:50:35;13.90;;;7.55;;
24557;SDS011;12726;49.148;8.582;2024-01-07T05:53:21;11.52;;;7.00;;
24557;SDS011;12726;49.148;8.582;2024-01-07T05:56:06;12.18;;;6.82;;
24557;SDS011;12726;49.148;8.582;2024-01-07T05:58:51;12.27;;;6.93;;
24557;SDS011;12726;49.148;8.582;2024-01-07T06:01:38;14.05;;;6.55;;
24557;SDS011;12726;49.148;8.582;2024-01-07T06:04:24;12.77;;;6.75;;
24557;SDS011;12726;49.148;8.582;2024-01-07T06:07:09;13.30;;;6.60;;
24557;SDS011;12726;49.148;8.582;2024-01-07T06:09:55;13.18;;;6.82;;
24557;SDS011;12726;49.148;8.582;2024-01-07T06:12:40;10.90;;;5.93;;
24557;SDS011;12726;49.148;8.582;2024-01-07T06:15:25;10.52;;;5.63;;
24557;SDS011;12726;49.148;8.582;2024-01-07T06:18:12;10.43;;;6.05;;
24557;SDS011;12726;49.148;8.582;2024-01-07T06:20:58;9.95;;;6.00;;
24557;SDS011;12726;49.148;8.582;2024-01-07T06:23:43;9.27;;;5.68;;
24557;SDS011;12726;49.148;8.582;2024-01-07T06:26:28;12.18;;;6.32;;
24557;SDS011;12726;49.148;8.582;2024-01-07T06:29:14;10.50;;;6.03;;
24557;SDS011;12726;49.148;8.582;2024-01-07T06:31:59;11.70;;;6.28;;
24557;SDS011;12726;49.148;8.582;2024-01-07T06:34:46;10.40;;;6.10;;
24557;SDS011;12726;49.148;8.582;2024-01-07T06:37:31;12.35;;;6.53;;
24557;SDS011;12726;49.148;8.582;2024-01-07T06:40:17;11.05;;;6.55;;
24557;SDS011;12726;49.148;8.582;2024-01-07T06:43:02;11.32;;;6.95;;
24557;SDS011;12726;49.148;8.582;2024-01-07T06:45:47;11.23;;;6.70;;
24557;SDS011;12726;49.148;8.582;2024-01-07T06:48:32;11.93;;;6.13;;
24557;SDS011;12726;49.148;8.582;2024-01-07T06:51:19;12.93;;;6.82;;
24557;SDS011;12726;49.148;8.582;2024-01-07T06:54:05;11.90;;;6.72;;
24557;SDS011;12726;49.148;8.582;2024-01-07T06:56:50;13.32;;;6.72;;
24557;SDS011;12726;49.148;8.582;2024-01-07T06:59:35;11.00;;;6.63;;
24557;SDS011;12726;49.148;8.582;2024-01-07T07:02:21;12.48;;;7.22;;
24557;SDS011;12726;49.148;8.582;2024-01-07T07:05:06;15.48;;;7.47;;
24557;SDS011;12726;49.148;8.582;2024-01-07T07:07:54;13.75;;;7.00;;
24557;SDS011;12726;49.148;8.582;2024-01-07T07:10:39;11.27;;;6.70;;
24557;SDS011;12726;49.148;8.582;2024-01-07T07:13:24;13.98;;;7.28;;
24557;SDS011;12726;49.148;8.582;2024-01-07T07:16:09;13.63;;;6.75;;
24557;SDS011;12726;49.148;8.582;2024-01-07T07:18:55;13.05;;;7.13;;
24557;SDS011;12726;49.148;8.582;2024-01-07T07:21:41;14.60;;;7.82;;
24557;SDS011;12726;49.148;8.582;2024-01-07T07:24:27;16.15;;;7.80;;
24557;SDS011;12726;49.148;8.582;2024-01-07T07:27:13;13.73;;;7.70;;
24557;SDS011;12726;49.148;8.582;2024-01-07T07:29:58;19.77;;;8.52;;
24557;SDS011;12726;49.148;8.582;2024-01-07T07:32:44;18.48;;;7.65;;
24557;SDS011;12726;49.148;8.582;2024-01-07T07:35:29;15.88;;;7.82;;
24557;SDS011;12726;49.148;8.582;2024-01-07T07:38:15;17.45;;;7.90;;
24557;SDS011;12726;49.148;8.582;2024-01-07T07:41:01;16.55;;;8.02;;
24557;SDS011;12726;49.148;8.582;2024-01-07T07:43:47;16.42;;;7.07;;
24557;SDS011;12726;49.148;8.582;2024-01-07T07:46:33;17.33;;;8.18;;
24557;SDS011;12726;49.148;8.582;2024-01-07T07:49:18;21.73;;;8.57;;
24557;SDS011;12726;49.148;8.582;2024-01-07T07:52:03;17.30;;;8.15;;
24557;SDS011;12726;49.148;8.582;2024-01-07T07:54:49;20.83;;;9.13;;
24557;SDS011;12726;49.148;8.582;2024-01-07T07:57:36;20.65;;;8.73;;
24557;SDS011;12726;49.148;8.582;2024-01-07T08:00:21;19.15;;;8.77;;
24557;SDS011;12726;49.148;8.582;2024-01-07T08:03:07;19.50;;;9.32;;
24557;SDS011;12726;49.148;8.582;2024-01-07T08:05:52;24.80;;;9.38;;
24557;SDS011;12726;49.148;8.582;2024-01-07T08:08:37;20.27;;;8.80;;
24557;SDS011;12726;49.148;8.582;2024-01-07T08:11:23;18.40;;;9.65;;
24557;SDS011;12726;49.148;8.582;2024-01-07T08:14:10;18.52;;;7.90;;
24557;SDS011;12726;49.148;8.582;2024-01-07T08:16:55;20.30;;;9.38;;
24557;SDS011;12726;49.148;8.582;2024-01-07T08:19:40;15.02;;;8.45;;
24557;SDS011;12726;49.148;8.582;2024-01-07T08:22:26;17.52;;;8.48;;
24557;SDS011;12726;49.148;8.582;2024-01-07T08:25:12;16.98;;;8.50;;
24557;SDS011;12726;49.148;8.582;2024-01-07T08:27:57;16.77;;;8.35;;
24557;SDS011;12726;49.148;8.582;2024-01-07T08:30:46;17.98;;;9.25;;
24557;SDS011;12726;49.148;8.582;2024-01-07T08:33:32;18.75;;;8.80;;
24557;SDS011;12726;49.148;8.582;2024-01-07T08:36:18;20.83;;;9.68;;
24557;SDS011;12726;49.148;8.582;2024-01-07T08:39:03;19.80;;;9.45;;
24557;SDS011;12726;49.148;8.582;2024-01-07T08:41:49;16.25;;;8.60;;
24557;SDS011;12726;49.148;8.582;2024-01-07T08:44:36;19.63;;;9.90;;
24557;SDS011;12726;49.148;8.582;2024-01-07T08:47:23;16.85;;;8.93;;
24557;SDS011;12726;49.148;8.582;2024-01-07T08:50:08;20.02;;;10.07;;
24557;SDS011;12726;49.148;8.582;2024-01-07T08:52:54;17.75;;;9.60;;
24557;SDS011;12726;49.148;8.582;2024-01-07T08:55:39;19.27;;;9.60;;
24557;SDS011;12726;49.148;8.582;2024-01-07T08:58:24;18.38;;;9.73;;
24557;SDS011;12726;49.148;8.582;2024-01-07T09:01:10;18.17;;;9.05;;
24557;SDS011;12726;49.148;8.582;2024-01-07T09:03:59;16.50;;;9.43;;
24557;SDS011;12726;49.148;8.582;2024-01-07T09:06:44;16.73;;;9.27;;
24557;SDS011;12726;49.148;8.582;2024-01-07T09:09:29;19.98;;;9.52;;
24557;SDS011;12726;49.148;8.582;2024-01-07T09:12:15;18.65;;;10.43;;
24557;SDS011;12726;49.148;8.582;2024-01-07T09:15:00;20.33;;;11.05;;
24557;SDS011;12726;49.148;8.582;2024-01-07T09:17:46;19.15;;;10.65;;
24557;SDS011;12726;49.148;8.582;2024-01-07T09:20:32;17.42;;;10.05;;
24557;SDS011;12726;49.148;8.582;2024-01-07T09:23:18;21.10;;;11.30;;
24557;SDS011;12726;49.148;8.582;2024-01-07T09:26:04;17.98;;;9.57;;
24557;SDS011;12726;49.148;8.582;2024-01-07T09:28:49;14.18;;;8.88;;
24557;SDS011;12726;49.148;8.582;2024-01-07T09:31:35;15.35;;;9.02;;
24557;SDS011;12726;49.148;8.582;2024-01-07T09:34:23;14.82;;;8.63;;
24557;SDS011;12726;49.148;8.582;2024-01-07T09:37:10;11.32;;;7.13;;
24557;SDS011;12726;49.148;8.582;2024-01-07T09:39:56;11.55;;;6.38;;
24557;SDS011;12726;49.148;8.582;2024-01-07T09:42:41;7.80;;;5.82;;
24557;SDS011;12726;49.148;8.582;2024-01-07T09:45:26;9.68;;;5.70;;
24557;SDS011;12726;49.148;8.582;2024-01-07T09:48:14;6.87;;;4.97;;
24557;SDS011;12726;49.148;8.582;2024-01-07T09:51:00;8.38;;;5.25;;
24557;SDS011;12726;49.148;8.582;2024-01-07T09:53:47;8.25;;;4.65;;
24557;SDS011;12726;49.148;8.582;2024-01-07T09:56:34;8.27;;;5.20;;
24557;SDS011;12726;49.148;8.582;2024-01-07T09:59:26;14.37;;;6.53;;
24557;SDS011;12726;49.148;8.582;2024-01-07T10:02:13;5.68;;;3.92;;
24557;SDS011;12726;49.148;8.582;2024-01-07T10:05:00;7.38;;;4.13;;
24557;SDS011;12726;49.148;8.582;2024-01-07T10:07:45;7.40;;;4.60;;
24557;SDS011;12726;49.148;8.582;2024-01-07T10:10:32;6.68;;;4.40;;
24557;SDS011;12726;49.148;8.582;2024-01-07T10:13:20;9.80;;;5.35;;
24557;SDS011;12726;49.148;8.582;2024-01-07T10:16:07;7.25;;;4.35;;
24557;SDS011;12726;49.148;8.582;2024-01-07T10:18:52;7.55;;;4.38;;
24557;SDS011;12726;49.148;8.582;2024-01-07T10:21:38;11.25;;;5.50;;
24557;SDS011;12726;49.148;8.582;2024-01-07T10:24:23;5.82;;;4.03;;
24557;SDS011;12726;49.148;8.582;2024-01-07T10:27:10;6.70;;;4.32;;
24557;SDS011;12726;49.148;8.582;2024-01-07T10:29:58;6.00;;;4.25;;
24557;SDS011;12726;49.148;8.582;2024-01-07T10:32:43;6.32;;;3.88;;
24557;SDS011;12726;49.148;8.582;2024-01-07T10:35:32;4.45;;;3.17;;
24557;SDS011;12726;49.148;8.582;2024-01-07T10:38:18;4.88;;;3.78;;
24557;SDS011;12726;49.148;8.582;2024-01-07T10:41:05;5.63;;;3.35;;
24557;SDS011;12726;49.148;8.582;2024-01-07T10:43:54;8.93;;;5.25;;
24557;SDS011;12726;49.148;8.582;2024-01-07T10:46:40;5.75;;;3.83;;
24557;SDS011;12726;49.148;8.582;2024-01-07T10:49:28;4.90;;;3.63;;
24557;SDS011;12726;49.148;8.582;2024-01-07T10:52:13;5.05;;;3.55;;
24557;SDS011;12726;49.148;8.582;2024-01-07T10:55:02;4.80;;;3.15;;
24557;SDS011;12726;49.148;8.582;2024-01-07T10:57:53;4.63;;;3.35;;
24557;SDS011;12726;49.148;8.582;2024-01-07T11:00:42;4.80;;;3.28;;
24557;SDS011;12726;49.148;8.582;2024-01-07T11:03:31;6.10;;;3.75;;
24557;SDS011;12726;49.148;8.582;2024-01-07T11:06:24;8.63;;;5.07;;
24557;SDS011;12726;49.148;8.582;2024-01-07T11:09:17;7.15;;;4.60;;
24557;SDS011;12726;49.148;8.582;2024-01-07T11:12:07;6.90;;;4.10;;
24557;SDS011;12726;49.148;8.582;2024-01-07T11:14:53;5.97;;;3.83;;
24557;SDS011;12726;49.148;8.582;2024-01-07T11:17:42;5.93;;;3.72;;
24557;SDS011;12726;49.148;8.582;2024-01-07T11:20:30;6.38;;;4.15;;
24557;SDS011;12726;49.148;8.582;2024-01-07T11:23:26;14.13;;;8.15;;
24557;SDS011;12726;49.148;8.582;2024-01-07T11:26:12;7.78;;;4.82;;
24557;SDS011;12726;49.148;8.582;2024-01-07T11:28:58;8.73;;;5.30;;
24557;SDS011;12726;49.148;8.582;2024-01-07T11:31:45;11.27;;;6.53;;
24557;SDS011;12726;49.148;8.582;2024-01-07T11:34:41;6.68;;;4.72;;
24557;SDS011;12726;49.148;8.582;2024-01-07T11:37:31;7.90;;;4.38;;
24557;SDS011;12726;49.148;8.582;2024-01-07T11:40:17;8.20;;;4.50;;
24557;SDS011;12726;49.148;8.582;2024-01-07T11:43:02;4.85;;;3.53;;
24557;SDS011;12726;49.148;8.582;2024-01-07T11:45:49;4.00;;;2.97;;
24557;SDS011;12726;49.148;8.582;2024-01-07T11:48:34;6.15;;;3.80;;
24557;SDS011;12726;49.148;8.582;2024-01-07T11:51:24;7.65;;;4.60;;
24557;SDS011;12726;49.148;8.582;2024-01-07T11:54:09;9.47;;;5.30;;
24557;SDS011;12726;49.148;8.582;2024-01-07T11:56:55;8.93;;;5.78;;
24557;SDS011;12726;49.148;8.582;2024-01-07T11:59:40;7.95;;;5.43;;
24557;SDS011;12726;49.148;8.582;2024-01-07T12:02:26;7.85;;;5.95;;
24557;SDS011;12726;49.148;8.582;2024-01-07T12:05:13;10.23;;;7.18;;
24557;SDS011;12726;49.148;8.582;2024-01-07T12:08:01;10.23;;;6.10;;
24557;SDS011;12726;49.148;8.582;2024-01-07T12:10:47;5.00;;;4.07;;
24557;SDS011;12726;49.148;8.582;2024-01-07T12:13:32;7.97;;;5.68;;
24557;SDS011;12726;49.148;8.582;2024-01-07T12:16:18;7.05;;;3.97;;
24557;SDS011;12726;49.148;8.582;2024-01-07T12:19:04;5.82;;;4.25;;
24557;SDS011;12726;49.148;8.582;2024-01-07T12:21:55;7.60;;;4.50;;
24557;SDS011;12726;49.148;8.582;2024-01-07T12:24:59;11.07;;;5.60;;
24557;SDS011;12726;49.148;8.582;2024-01-07T12:27:44;8.70;;;5.57;;
24557;SDS011;12726;49.148;8.582;2024-01-07T12:30:30;5.90;;;4.60;;
24557;SDS011;12726;49.148;8.582;2024-01-07T12:33:17;4.60;;;3.72;;
24557;SDS011;12726;49.148;8.582;2024-01-07T12:36:02;5.50;;;4.07;;
24557;SDS011;12726;49.148;8.582;2024-01-07T12:38:48;4.20;;;3.80;;
24557;SDS011;12726;49.148;8.582;2024-01-07T12:41:36;8.93;;;5.63;;
24557;SDS011;12726;49.148;8.582;2024-01-07T12:44:21;10.50;;;6.18;;
24557;SDS011;12726;49.148;8.582;2024-01-07T12:47:07;11.13;;;6.43;;
24557;SDS011;12726;49.148;8.582;2024-01-07T12:49:52;8.30;;;5.70;;
24557;SDS011;12726;49.148;8.582;2024-01-07T12:52:38;6.57;;;4.88;;
24557;SDS011;12726;49.148;8.582;2024-01-07T12:55:24;8.48;;;5.20;;
24557;SDS011;12726;49.148;8.582;2024-01-07T12:58:11;9.10;;;6.50;;
24557;SDS011;12726;49.148;8.582;2024-01-07T13:00:57;7.57;;;5.15;;
24557;SDS011;12726;49.148;8.582;2024-01-07T13:03:45;6.45;;;4.32;;
24557;SDS011;12726;49.148;8.582;2024-01-07T13:06:32;6.93;;;4.93;;
24557;SDS011;12726;49.148;8.582;2024-01-07T13:09:17;7.55;;;4.40;;
24557;SDS011;12726;49.148;8.582;2024-01-07T13:12:03;6.30;;;4.22;;
24557;SDS011;12726;49.148;8.582;2024-01-07T13:14:50;8.65;;;5.35;;
24557;SDS011;12726;49.148;8.582;2024-01-07T13:17:36;6.03;;;4.18;;
24557;SDS011;12726;49.148;8.582;2024-01-07T13:20:21;5.85;;;4.20;;
24557;SDS011;12726;49.148;8.582;2024-01-07T13:23:07;5.55;;;4.18;;
24557;SDS011;12726;49.148;8.582;2024-01-07T13:25:53;8.50;;;5.20;;
24557;SDS011;12726;49.148;8.582;2024-01-07T13:28:39;6.63;;;4.40;;
24557;SDS011;12726;49.148;8.582;2024-01-07T13:31:26;6.95;;;5.00;;
24557;SDS011;12726;49.148;8.582;2024-01-07T13:34:11;8.02;;;5.13;;
24557;SDS011;12726;49.148;8.582;2024-01-07T13:36:58;7.55;;;4.90;;
24557;SDS011;12726;49.148;8.582;2024-01-07T13:39:47;7.47;;;5.13;;
24557;SDS011;12726;49.148;8.582;2024-01-07T13:42:33;9.38;;;6.40;;
24557;SDS011;12726;49.148;8.582;2024-01-07T13:45:18;12.75;;;6.20;;
24557;SDS011;12726;49.148;8.582;2024-01-07T13:48:08;7.75;;;5.32;;
24557;SDS011;12726;49.148;8.582;2024-01-07T13:50:53;7.90;;;5.25;;
24557;SDS011;12726;49.148;8.582;2024-01-07T13:53:39;6.43;;;4.53;;
24557;SDS011;12726;49.148;8.582;2024-01-07T13:56:24;7.10;;;4.78;;
24557;SDS011;12726;49.148;8.582;2024-01-07T13:59:10;6.45;;;4.57;;
24557;SDS011;12726;49.148;8.582;2024-01-07T14:01:56;8.70;;;5.13;;
24557;SDS011;12726;49.148;8.582;2024-01-07T14:04:43;9.27;;;5.90;;
24557;SDS011;12726;49.148;8.582;2024-01-07T14:07:29;9.25;;;6.57;;
24557;SDS011;12726;49.148;8.582;2024-01-07T14:10:14;12.55;;;6.25;;
24557;SDS011;12726;49.148;8.582;2024-01-07T14:12:59;9.60;;;5.70;;
24557;SDS011;12726;49.148;8.582;2024-01-07T14:15:45;7.22;;;4.60;;
24557;SDS011;12726;49.148;8.582;2024-01-07T14:18:30;8.07;;;4.97;;
24557;SDS011;12726;49.148;8.582;2024-01-07T14:21:17;7.07;;;4.40;;
24557;SDS011;12726;49.148;8.582;2024-01-07T14:24:02;7.90;;;4.85;;
24557;SDS011;12726;49.148;8.582;2024-01-07T14:26:47;6.78;;;4.75;;
24557;SDS011;12726;49.148;8.582;2024-01-07T14:29:33;8.75;;;5.00;;
24557;SDS011;12726;49.148;8.582;2024-01-07T14:32:19;7.32;;;4.55;;
24557;SDS011;12726;49.148;8.582;2024-01-07T14:35:04;6.13;;;4.82;;
24557;SDS011;12726;49.148;8.582;2024-01-07T14:37:52;6.65;;;4.47;;
24557;SDS011;12726;49.148;8.582;2024-01-07T14:40:37;8.45;;;5.03;;
24557;SDS011;12726;49.148;8.582;2024-01-07T14:43:24;8.43;;;4.97;;
24557;SDS011;12726;49.148;8.582;2024-01-07T14:46:10;9.60;;;5.75;;
24557;SDS011;12726;49.148;8.582;2024-01-07T14:48:55;7.43;;;5.35;;
24557;SDS011;12726;49.148;8.582;2024-01-07T14:51:40;8.38;;;4.88;;
24557;SDS011;12726;49.148;8.582;2024-01-07T14:54:27;7.47;;;4.78;;
24557;SDS011;12726;49.148;8.582;2024-01-07T14:57:15;7.78;;;5.15;;
24557;SDS011;12726;49.148;8.582;2024-01-07T15:00:00;7.78;;;4.78;;
24557;SDS011;12726;49.148;8.582;2024-01-07T15:02:47;6.35;;;4.35;;
24557;SDS011;12726;49.148;8.582;2024-01-07T15:05:32;8.32;;;4.75;;
24557;SDS011;12726;49.148;8.582;2024-01-07T15:08:18;5.50;;;3.97;;
24557;SDS011;12726;49.148;8.582;2024-01-07T15:11:05;7.60;;;5.03;;
24557;SDS011;12726;49.148;8.582;2024-01-07T15:13:50;9.50;;;5.25;;
24557;SDS011;12726;49.148;8.582;2024-01-07T15:16:36;7.85;;;4.65;;
24557;SDS011;12726;49.148;8.582;2024-01-07T15:19:21;6.53;;;4.35;;
24557;SDS011;12726;49.148;8.582;2024-01-07T15:22:07;9.95;;;6.00;;
24557;SDS011;12726;49.148;8.582;2024-01-07T15:24:53;7.50;;;4.93;;
24557;SDS011;12726;49.148;8.582;2024-01-07T15:27:40;8.43;;;5.57;;
24557;SDS011;12726;49.148;8.582;2024-01-07T15:30:25;11.45;;;7.03;;
24557;SDS011;12726;49.148;8.582;2024-01-07T15:33:11;13.15;;;6.90;;
24557;SDS011;12726;49.148;8.582;2024-01-07T15:35:56;16.40;;;9.05;;
24557;SDS011;12726;49.148;8.582;2024-01-07T15:38:42;17.10;;;9.25;;
24557;SDS011;12726;49.148;8.582;2024-01-07T15:41:28;20.98;;;11.55;;
24557;SDS011;12726;49.148;8.582;2024-01-07T15:44:15;18.50;;;10.05;;
24557;SDS011;12726;49.148;8.582;2024-01-07T15:47:00;19.42;;;10.05;;
24557;SDS011;12726;49.148;8.582;2024-01-07T15:49:47;16.15;;;8.90;;
24557;SDS011;12726;49.148;8.582;2024-01-07T15:52:33;14.32;;;7.80;;
24557;SDS011;12726;49.148;8.582;2024-01-07T15:55:18;16.40;;;9.80;;
24557;SDS011;12726;49.148;8.582;2024-01-07T15:58:03;13.95;;;7.60;;
24557;SDS011;12726;49.148;8.582;2024-01-07T16:00:50;11.90;;;6.95;;
24557;SDS011;12726;49.148;8.582;2024-01-07T16:03:35;11.85;;;6.80;;
24557;SDS011;12726;49.148;8.582;2024-01-07T16:06:21;9.97;;;6.33;;
24557;SDS011;12726;49.148;8.582;2024-01-07T16:09:06;13.10;;;6.82;;
24557;SDS011;12726;49.148;8.582;2024-01-07T16:11:51;12.88;;;6.88;;
24557;SDS011;12726;49.148;8.582;2024-01-07T16:14:37;13.48;;;7.53;;
24557;SDS011;12726;49.148;8.582;2024-01-07T16:17:24;14.73;;;7.88;;
24557;SDS011;12726;49.148;8.582;2024-01-07T16:20:10;14.30;;;7.15;;
24557;SDS011;12726;49.148;8.582;2024-01-07T16:22:56;13.23;;;7.25;;
24557;SDS011;12726;49.148;8.582;2024-01-07T16:25:42;11.18;;;6.32;;
24557;SDS011;12726;49.148;8.582;2024-01-07T16:28:27;11.57;;;6.40;;
24557;SDS011;12726;49.148;8.582;2024-01-07T16:31:12;13.77;;;6.82;;